createdAt,value
2022-12-28T00:01:40.367Z,20.87
2022-12-28T00:04:10.580Z,20.88
2022-12-28T00:06:40.890Z,20.87
2022-12-28T00:09:14.758Z,20.90
2022-12-28T00:11:44.947Z,20.89
2022-12-28T00:14:15.239Z,20.89
2022-12-28T00:16:46.959Z,20.88
2022-12-28T00:19:19.718Z,20.87
2022-12-28T00:21:50.562Z,20.86
2022-12-28T00:24:26.420Z,20.86
2022-12-28T00:26:57.351Z,20.83
2022-12-28T00:29:27.790Z,20.82
2022-12-28T00:31:57.615Z,20.80
2022-12-28T00:34:27.419Z,20.81
2022-12-28T00:37:10.369Z,20.80
2022-12-28T00:39:45.103Z,20.79
2022-12-28T00:42:15.520Z,20.78
2022-12-28T00:44:45.880Z,20.78
2022-12-28T00:47:15.953Z,20.76
2022-12-28T00:49:46.324Z,20.75
2022-12-28T00:52:16.441Z,20.75
2022-12-28T00:54:48.585Z,20.74
2022-12-28T00:57:18.950Z,20.72
2022-12-28T00:59:49.080Z,20.70
2022-12-28T01:02:19.352Z,20.68
2022-12-28T01:04:49.862Z,20.66
2022-12-28T01:07:20.392Z,20.64
2022-12-28T01:09:52.711Z,20.64
2022-12-28T01:12:22.731Z,20.63
2022-12-28T01:14:53.164Z,20.60
2022-12-28T01:17:23.706Z,20.60
2022-12-28T01:19:54.149Z,20.57
2022-12-28T01:22:24.831Z,20.56
2022-12-28T01:24:57.402Z,20.54
2022-12-28T01:27:27.698Z,20.53
2022-12-28T01:29:58.025Z,20.53
2022-12-28T01:32:28.588Z,20.51
2022-12-28T01:34:58.173Z,20.50
2022-12-28T01:37:28.519Z,20.50
2022-12-28T01:40:01.036Z,20.49
2022-12-28T01:42:31.053Z,20.47
2022-12-28T01:45:18.163Z,20.46
2022-12-28T01:47:52.308Z,20.44
2022-12-28T01:50:28.803Z,20.44
2022-12-28T01:53:04.488Z,20.43
2022-12-28T01:55:42.259Z,20.41
2022-12-28T01:58:17.627Z,20.40
2022-12-28T02:00:47.436Z,20.40
2022-12-28T02:03:22.735Z,20.40
2022-12-28T02:05:58.153Z,20.39
2022-12-28T02:08:38.528Z,20.38
2022-12-28T02:11:15.424Z,20.37
2022-12-28T02:13:48.782Z,20.37
2022-12-28T02:16:19.017Z,20.35
2022-12-28T02:18:50.758Z,20.36
2022-12-28T02:21:38.805Z,20.36
2022-12-28T02:25:12.710Z,20.33
2022-12-28T02:28:02.869Z,20.31
2022-12-28T02:30:41.926Z,20.31
2022-12-28T02:33:26.525Z,20.31
2022-12-28T02:36:03.758Z,20.30
2022-12-28T02:38:43.827Z,20.29
2022-12-28T02:41:20.965Z,20.28
2022-12-28T02:43:51.368Z,20.26
2022-12-28T02:46:46.305Z,20.25
2022-12-28T02:49:39.079Z,20.23
2022-12-28T02:52:23.253Z,20.21
2022-12-28T02:55:44.415Z,20.20
2022-12-28T02:58:38.324Z,20.17
2022-12-28T03:01:29.672Z,20.17
2022-12-28T03:04:13.976Z,20.15
2022-12-28T03:07:11.633Z,20.14
2022-12-28T03:09:51.197Z,20.11
2022-12-28T03:12:36.333Z,20.09
2022-12-28T03:15:14.578Z,20.07
2022-12-28T03:18:04.496Z,20.06
2022-12-28T03:20:52.121Z,20.04
2022-12-28T03:23:43.300Z,20.04
2022-12-28T03:26:32.278Z,20.03
2022-12-28T03:29:23.887Z,20.03
2022-12-28T03:31:54.325Z,20.03
2022-12-28T03:34:26.758Z,20.03
2022-12-28T03:37:07.341Z,20.04
2022-12-28T03:39:47.699Z,20.03
2022-12-28T03:42:41.042Z,20.03
2022-12-28T03:45:44.991Z,20.00
2022-12-28T03:48:16.743Z,19.98
2022-12-28T03:50:53.185Z,20.00
2022-12-28T03:53:29.200Z,20.01
2022-12-28T03:56:11.076Z,20.02
2022-12-28T03:58:41.162Z,20.02
2022-12-28T04:01:11.889Z,20.01
2022-12-28T04:03:42.479Z,20.02
2022-12-28T04:06:17.118Z,20.02
2022-12-28T04:08:48.833Z,20.01
2022-12-28T04:11:19.371Z,20.00
2022-12-28T04:13:49.635Z,20.01
2022-12-28T04:16:20.580Z,20.00
2022-12-28T04:18:50.582Z,20.02
2022-12-28T04:21:22.536Z,20.02
2022-12-28T04:23:52.802Z,20.01
2022-12-28T04:26:23.768Z,20.01
2022-12-28T04:28:53.840Z,20.01
2022-12-28T04:31:23.956Z,20.01
2022-12-28T04:33:54.382Z,20.00
2022-12-28T04:36:27.012Z,19.99
2022-12-28T04:38:57.418Z,19.98
2022-12-28T04:41:27.866Z,19.95
2022-12-28T04:43:58.724Z,19.93
2022-12-28T04:46:28.871Z,19.90
2022-12-28T04:48:58.689Z,19.88
2022-12-28T04:51:32.410Z,19.87
2022-12-28T04:54:02.643Z,19.87
2022-12-28T04:56:33.117Z,19.88
2022-12-28T04:59:03.737Z,19.88
2022-12-28T05:01:34.440Z,19.88
2022-12-28T05:04:05.022Z,19.90
2022-12-28T05:06:36.464Z,19.90
2022-12-28T05:09:07.115Z,19.90
2022-12-28T05:11:36.943Z,19.89
2022-12-28T05:14:07.212Z,19.90
2022-12-28T05:16:37.474Z,19.91
2022-12-28T05:19:07.807Z,19.92
2022-12-28T05:21:39.857Z,19.94
2022-12-28T05:24:11.022Z,19.95
2022-12-28T05:26:41.408Z,19.96
2022-12-28T05:29:11.952Z,19.96
2022-12-28T05:31:42.206Z,19.96
2022-12-28T05:34:12.477Z,19.96
2022-12-28T05:36:45.196Z,19.96
2022-12-28T05:39:15.603Z,19.97
2022-12-28T05:41:45.953Z,19.99
2022-12-28T05:44:15.887Z,19.99
2022-12-28T05:46:46.258Z,19.98
2022-12-28T05:49:16.478Z,19.96
2022-12-28T05:51:52.141Z,19.96
2022-12-28T05:54:22.143Z,19.96
2022-12-28T05:56:54.373Z,19.97
2022-12-28T05:59:25.256Z,19.98
2022-12-28T06:01:55.463Z,20.00
2022-12-28T06:04:26.030Z,20.01
2022-12-28T06:06:58.127Z,20.02
2022-12-28T06:09:28.431Z,20.03
2022-12-28T06:11:58.726Z,20.04
2022-12-28T06:14:28.703Z,20.09
2022-12-28T06:16:59.096Z,20.16
2022-12-28T06:19:29.494Z,20.30
2022-12-28T06:22:01.712Z,20.47
2022-12-28T06:24:31.991Z,20.69
2022-12-28T06:27:02.196Z,20.94
2022-12-28T06:29:32.659Z,21.21
2022-12-28T06:32:02.457Z,21.47
2022-12-28T06:34:32.826Z,21.71
2022-12-28T06:37:04.664Z,21.99
2022-12-28T06:39:35.025Z,22.28
2022-12-28T06:42:05.492Z,22.56
2022-12-28T06:44:39.279Z,22.87
2022-12-28T06:47:14.995Z,23.16
2022-12-28T06:49:44.812Z,23.42
2022-12-28T06:52:16.325Z,23.64
2022-12-28T06:54:46.543Z,23.87
2022-12-28T06:57:16.528Z,24.11
2022-12-28T06:59:46.473Z,24.34
2022-12-28T07:02:17.098Z,24.55
2022-12-28T07:04:47.669Z,24.75
2022-12-28T07:07:20.185Z,24.93
2022-12-28T07:09:49.862Z,25.12
2022-12-28T07:12:20.207Z,25.34
2022-12-28T07:14:50.486Z,25.55
2022-12-28T07:17:20.804Z,25.78
2022-12-28T07:19:51.840Z,25.98
2022-12-28T07:22:24.145Z,26.20
2022-12-28T07:24:54.353Z,26.42
2022-12-28T07:27:24.717Z,26.63
2022-12-28T07:29:55.161Z,26.81
2022-12-28T07:32:25.060Z,26.98
2022-12-28T07:34:55.490Z,27.14
2022-12-28T07:37:27.719Z,27.29
2022-12-28T07:39:58.197Z,27.40
2022-12-28T07:42:28.649Z,27.53
2022-12-28T07:44:58.768Z,27.69
2022-12-28T07:47:29.021Z,27.87
2022-12-28T07:49:59.021Z,28.01
2022-12-28T07:52:31.091Z,28.15
2022-12-28T07:55:01.545Z,28.30
2022-12-28T07:57:31.622Z,28.47
2022-12-28T08:00:01.897Z,28.65
2022-12-28T08:02:32.482Z,28.85
2022-12-28T08:05:02.487Z,29.06
2022-12-28T08:07:34.649Z,29.26
2022-12-28T08:10:04.995Z,29.49
2022-12-28T08:12:35.422Z,29.73
2022-12-28T08:15:05.894Z,29.95
2022-12-28T08:17:37.486Z,30.16
2022-12-28T08:20:09.677Z,30.32
2022-12-28T08:22:42.009Z,30.52
2022-12-28T08:25:13.728Z,30.76
2022-12-28T08:27:43.546Z,31.04
2022-12-28T08:30:15.144Z,31.29
2022-12-28T08:32:45.002Z,31.49
2022-12-28T08:35:15.322Z,31.73
2022-12-28T08:37:47.477Z,31.98
2022-12-28T08:40:17.884Z,32.23
2022-12-28T08:42:48.113Z,32.49
2022-12-28T08:45:18.553Z,32.76
2022-12-28T08:47:48.380Z,32.94
2022-12-28T08:50:20.206Z,32.94
2022-12-28T08:52:53.837Z,32.81
2022-12-28T08:55:23.739Z,32.62
2022-12-28T08:57:54.040Z,32.39
2022-12-28T09:00:24.397Z,32.17
2022-12-28T09:02:56.212Z,31.94
2022-12-28T09:05:26.732Z,31.67
2022-12-28T09:07:59.826Z,31.37
2022-12-28T09:10:30.197Z,31.11
2022-12-28T09:13:00.504Z,30.90
2022-12-28T09:15:30.281Z,30.75
2022-12-28T09:18:00.022Z,30.58
2022-12-28T09:20:30.084Z,30.42
2022-12-28T09:23:01.853Z,30.24
2022-12-28T09:25:32.098Z,30.06
2022-12-28T09:28:01.877Z,29.88
2022-12-28T09:30:32.361Z,29.67
2022-12-28T09:33:15.511Z,29.48
2022-12-28T09:35:46.082Z,29.30
2022-12-28T09:38:18.984Z,29.15
2022-12-28T09:40:49.356Z,29.02
2022-12-28T09:43:20.125Z,28.95
2022-12-28T09:45:51.206Z,28.89
2022-12-28T09:48:27.075Z,28.81
2022-12-28T09:50:58.348Z,28.74
2022-12-28T09:53:35.544Z,28.65
2022-12-28T09:56:20.039Z,28.56
2022-12-28T09:58:50.458Z,28.47
2022-12-28T10:01:24.372Z,28.37
2022-12-28T10:03:56.115Z,28.29
2022-12-28T10:06:32.675Z,28.21
2022-12-28T10:09:08.404Z,28.09
2022-12-28T10:11:44.075Z,27.97
2022-12-28T10:14:23.429Z,27.86
2022-12-28T10:16:53.939Z,27.76
2022-12-28T10:19:28.731Z,27.69
2022-12-28T10:22:04.958Z,27.59
2022-12-28T10:24:37.654Z,27.48
2022-12-28T10:27:11.185Z,27.38
2022-12-28T10:29:41.660Z,27.29
2022-12-28T10:32:12.981Z,27.22
2022-12-28T10:35:00.272Z,27.14
2022-12-28T10:37:34.857Z,27.04
2022-12-28T10:40:21.231Z,26.97
2022-12-28T10:42:56.731Z,26.87
2022-12-28T10:45:37.311Z,26.81
2022-12-28T10:48:18.442Z,26.73
2022-12-28T10:50:55.888Z,26.64
2022-12-28T10:53:43.878Z,26.56
2022-12-28T10:56:31.797Z,26.49
2022-12-28T10:59:28.241Z,26.42
2022-12-28T11:02:24.592Z,26.37
2022-12-28T11:05:01.237Z,26.31
2022-12-28T11:07:36.407Z,26.26
2022-12-28T11:10:30.605Z,26.19
2022-12-28T11:13:04.453Z,26.12
2022-12-28T11:15:36.183Z,26.07
2022-12-28T11:18:20.563Z,26.04
2022-12-28T11:20:53.559Z,25.98
2022-12-28T11:23:31.915Z,25.96
2022-12-28T11:26:03.295Z,25.92
2022-12-28T11:28:35.572Z,25.89
2022-12-28T11:31:10.099Z,25.86
2022-12-28T11:33:46.920Z,25.82
2022-12-28T11:36:19.892Z,25.80
2022-12-28T11:38:52.987Z,25.78
2022-12-28T11:42:27.715Z,25.76
2022-12-28T11:44:56.731Z,25.73
2022-12-28T11:47:36.004Z,25.70
2022-12-28T11:50:54.359Z,25.67
2022-12-28T11:53:59.333Z,25.61
2022-12-28T11:57:01.143Z,25.59
2022-12-28T11:59:33.604Z,25.54
2022-12-28T12:02:44.221Z,25.51
2022-12-28T12:05:52.953Z,25.45
2022-12-28T12:08:44.712Z,25.41
2022-12-28T12:11:34.303Z,25.38
2022-12-28T12:14:05.413Z,25.35
2022-12-28T12:16:51.090Z,25.34
2022-12-28T12:19:31.079Z,25.30
2022-12-28T12:22:06.049Z,25.27
2022-12-28T12:24:48.364Z,25.21
2022-12-28T12:27:33.246Z,25.17
2022-12-28T12:30:06.632Z,25.13
2022-12-28T12:32:46.627Z,25.10
2022-12-28T12:35:23.529Z,25.08
2022-12-28T12:37:58.527Z,25.05
2022-12-28T12:41:02.219Z,25.02
2022-12-28T12:43:45.927Z,24.99
2022-12-28T12:47:05.636Z,24.95
2022-12-28T12:50:40.785Z,24.90
2022-12-28T12:53:48.534Z,24.84
2022-12-28T12:56:42.004Z,24.82
2022-12-28T12:59:53.910Z,24.80
2022-12-28T13:03:11.560Z,24.77
2022-12-28T13:05:48.833Z,24.77
2022-12-28T13:08:28.937Z,24.76
2022-12-28T13:10:59.273Z,24.74
2022-12-28T13:13:37.008Z,24.72
2022-12-28T13:16:12.717Z,24.69
2022-12-28T13:18:44.934Z,24.68
2022-12-28T13:21:24.033Z,24.66
2022-12-28T13:23:56.827Z,24.64
2022-12-28T13:26:31.346Z,24.62
2022-12-28T13:29:05.144Z,24.60
2022-12-28T13:31:38.613Z,24.59
2022-12-28T13:34:19.929Z,24.57
2022-12-28T13:36:56.889Z,24.55
2022-12-28T13:39:31.584Z,24.53
2022-12-28T13:42:08.346Z,24.52
2022-12-28T13:44:46.512Z,24.50
2022-12-28T13:47:24.625Z,24.49
2022-12-28T13:50:02.331Z,24.47
2022-12-28T13:52:40.262Z,24.45
2022-12-28T13:55:19.783Z,24.43
2022-12-28T13:57:59.757Z,24.42
2022-12-28T14:00:33.046Z,24.39
2022-12-28T14:03:04.318Z,24.37
2022-12-28T14:05:34.733Z,24.33
2022-12-28T14:08:08.915Z,24.30
2022-12-28T14:10:41.705Z,24.28
2022-12-28T14:13:13.624Z,24.25
2022-12-28T14:15:44.497Z,24.24
2022-12-28T14:18:18.998Z,24.22
2022-12-28T14:20:51.302Z,24.19
2022-12-28T14:23:27.646Z,24.18
2022-12-28T14:26:01.797Z,24.16
2022-12-28T14:28:38.591Z,24.13
2022-12-28T14:31:11.886Z,24.11
2022-12-28T14:33:54.989Z,24.10
2022-12-28T14:36:30.797Z,24.07
2022-12-28T14:41:57.712Z,24.04
2022-12-28T14:44:34.789Z,24.03
2022-12-28T14:47:05.488Z,24.01
2022-12-28T14:49:40.332Z,23.98
2022-12-28T14:52:39.308Z,23.95
2022-12-28T14:55:36.755Z,23.91
2022-12-28T14:58:20.804Z,23.89
2022-12-28T15:01:02.389Z,23.87
2022-12-28T15:03:49.643Z,23.87
2022-12-28T15:06:20.344Z,23.85
2022-12-28T15:08:54.553Z,23.84
2022-12-28T15:11:28.287Z,23.84
2022-12-28T15:14:01.213Z,23.81
2022-12-28T15:16:31.474Z,23.80
2022-12-28T15:19:01.321Z,23.79
2022-12-28T15:21:31.202Z,23.76
2022-12-28T15:24:02.129Z,23.75
2022-12-28T15:26:32.241Z,23.75
2022-12-28T15:29:07.842Z,23.73
2022-12-28T15:31:38.100Z,23.69
2022-12-28T15:34:08.422Z,23.68
2022-12-28T15:36:38.682Z,23.65
2022-12-28T15:39:08.591Z,23.63
2022-12-28T15:41:51.769Z,23.61
2022-12-28T15:44:24.620Z,23.58
2022-12-28T15:46:55.077Z,23.55
2022-12-28T15:49:25.476Z,23.53
2022-12-28T15:51:55.870Z,23.51
2022-12-28T15:54:25.588Z,23.48
2022-12-28T15:56:57.285Z,23.46
2022-12-28T15:59:29.509Z,23.44
2022-12-28T16:01:59.595Z,23.42
2022-12-28T16:04:29.762Z,23.40
2022-12-28T16:07:00.655Z,23.38
2022-12-28T16:09:31.256Z,23.37
2022-12-28T16:12:01.499Z,23.34
2022-12-28T16:14:34.599Z,23.32
2022-12-28T16:17:04.358Z,23.31
2022-12-28T16:19:34.608Z,23.29
2022-12-28T16:22:05.121Z,23.26
2022-12-28T16:24:36.595Z,23.25
2022-12-28T16:27:07.326Z,23.23
2022-12-28T16:29:40.200Z,23.21
2022-12-28T16:32:10.653Z,23.19
2022-12-28T16:34:41.120Z,23.17
2022-12-28T16:37:11.473Z,23.15
2022-12-28T16:39:41.073Z,23.13
2022-12-28T16:42:13.320Z,23.12
2022-12-28T16:44:45.684Z,23.13
2022-12-28T16:47:16.170Z,23.10
2022-12-28T16:49:47.644Z,23.08
2022-12-28T16:52:17.956Z,23.07
2022-12-28T16:54:48.170Z,23.06
2022-12-28T16:57:17.943Z,23.05
2022-12-28T16:59:50.280Z,23.04
2022-12-28T17:02:21.029Z,23.01
2022-12-28T17:04:51.017Z,23.00
2022-12-28T17:07:21.171Z,22.98
2022-12-28T17:09:51.455Z,22.96
2022-12-28T17:12:21.585Z,22.93
2022-12-28T17:14:53.654Z,22.93
2022-12-28T17:17:24.051Z,22.90
2022-12-28T17:19:53.928Z,22.90
2022-12-28T17:22:24.371Z,22.88
2022-12-28T17:24:54.143Z,22.86
2022-12-28T17:27:24.367Z,22.86
2022-12-28T17:29:56.306Z,22.86
2022-12-28T17:32:26.264Z,22.83
2022-12-28T17:34:56.714Z,22.82
2022-12-28T17:37:26.459Z,22.81
2022-12-28T17:39:57.185Z,22.81
2022-12-28T17:42:27.527Z,22.79
2022-12-28T17:44:59.690Z,22.78
2022-12-28T17:47:29.645Z,22.77
2022-12-28T17:50:00.560Z,22.75
2022-12-28T17:52:30.895Z,22.74
2022-12-28T17:55:01.245Z,22.72
2022-12-28T17:57:38.279Z,22.70
2022-12-28T18:00:13.317Z,22.68
2022-12-28T18:02:44.091Z,22.67
2022-12-28T18:05:15.260Z,22.65
2022-12-28T18:07:45.775Z,22.63
2022-12-28T18:10:15.868Z,22.61
2022-12-28T18:12:46.384Z,22.60
2022-12-28T18:15:18.939Z,22.59
2022-12-28T18:17:49.065Z,22.57
2022-12-28T18:20:19.176Z,22.55
2022-12-28T18:22:49.114Z,22.53
2022-12-28T18:25:19.543Z,22.52
2022-12-28T18:27:49.664Z,22.51
2022-12-28T18:30:22.636Z,22.50
2022-12-28T18:32:53.080Z,22.48
2022-12-28T18:35:25.724Z,22.46
2022-12-28T18:37:55.448Z,22.45
2022-12-28T18:40:26.169Z,22.43
2022-12-28T18:42:57.912Z,22.42
2022-12-28T18:45:30.411Z,22.40
2022-12-28T18:48:00.783Z,22.38
2022-12-28T18:50:31.053Z,22.39
2022-12-28T18:53:01.129Z,22.37
2022-12-28T18:55:31.545Z,22.36
2022-12-28T18:58:01.591Z,22.36
2022-12-28T19:00:33.207Z,22.34
2022-12-28T19:03:03.631Z,22.33
2022-12-28T19:05:34.092Z,22.32
2022-12-28T19:08:04.152Z,22.30
2022-12-28T19:10:34.080Z,22.29
2022-12-28T19:13:04.467Z,22.27
2022-12-28T19:15:37.143Z,22.27
2022-12-28T19:18:07.638Z,22.25
2022-12-28T19:20:37.660Z,22.25
2022-12-28T19:23:07.608Z,22.22
2022-12-28T19:25:39.162Z,22.21
2022-12-28T19:28:10.359Z,22.20
2022-12-28T19:30:42.800Z,22.20
2022-12-28T19:33:12.970Z,22.17
2022-12-28T19:35:44.223Z,22.16
2022-12-28T19:38:14.518Z,22.15
2022-12-28T19:40:45.167Z,22.14
2022-12-28T19:43:15.228Z,22.14
2022-12-28T19:45:47.431Z,22.13
2022-12-28T19:48:17.650Z,22.13
2022-12-28T19:50:47.684Z,22.11
2022-12-28T19:53:17.721Z,22.11
2022-12-28T19:55:47.971Z,22.09
2022-12-28T19:58:19.698Z,22.08
2022-12-28T20:00:52.218Z,22.08
2022-12-28T20:03:22.727Z,22.07
2022-12-28T20:05:52.857Z,22.05
2022-12-28T20:08:23.225Z,22.04
2022-12-28T20:10:58.918Z,22.04
2022-12-28T20:13:29.360Z,22.01
2022-12-28T20:16:01.853Z,22.02
2022-12-28T20:18:32.412Z,22.00
2022-12-28T20:21:21.430Z,21.98
2022-12-28T20:23:52.928Z,21.96
2022-12-28T20:26:27.457Z,21.95
2022-12-28T20:28:59.238Z,21.95
2022-12-28T20:31:31.933Z,21.94
2022-12-28T20:34:02.181Z,21.91
2022-12-28T20:36:34.282Z,21.91
2022-12-28T20:39:04.970Z,21.88
2022-12-28T20:41:52.605Z,21.88
2022-12-28T20:44:26.838Z,21.86
2022-12-28T20:47:00.384Z,21.85
2022-12-28T20:49:32.141Z,21.85
2022-12-28T20:52:02.150Z,21.84
2022-12-28T20:54:32.720Z,21.83
2022-12-28T20:57:03.894Z,21.83
2022-12-28T20:59:34.487Z,21.83
2022-12-28T21:02:06.556Z,21.82
2022-12-28T21:04:37.237Z,21.80
2022-12-28T21:07:06.929Z,21.80
2022-12-28T21:09:37.851Z,21.79
2022-12-28T21:12:08.507Z,21.78
2022-12-28T21:14:38.695Z,21.77
2022-12-28T21:17:10.712Z,21.76
2022-12-28T21:19:40.581Z,21.76
2022-12-28T21:22:10.945Z,21.75
2022-12-28T21:24:41.232Z,21.74
2022-12-28T21:27:11.587Z,21.72
2022-12-28T21:29:41.617Z,21.72
2022-12-28T21:32:13.480Z,21.71
2022-12-28T21:34:44.047Z,21.70
2022-12-28T21:37:31.119Z,21.70
2022-12-28T21:40:01.533Z,21.67
2022-12-28T21:42:31.767Z,21.65
2022-12-28T21:45:01.527Z,21.65
2022-12-28T21:47:36.263Z,21.64
2022-12-28T21:50:12.134Z,21.64
2022-12-28T21:52:42.485Z,21.61
2022-12-28T21:55:29.872Z,21.61
2022-12-28T21:58:01.458Z,21.58
2022-12-28T22:00:48.554Z,21.57
2022-12-28T22:03:37.439Z,21.56
2022-12-28T22:06:09.695Z,21.53
2022-12-28T22:08:56.234Z,21.52
2022-12-28T22:11:43.329Z,21.52
2022-12-28T22:14:12.998Z,21.49
2022-12-28T22:16:43.147Z,21.49
2022-12-28T22:19:15.629Z,21.49
2022-12-28T22:21:45.759Z,21.47
2022-12-28T22:24:16.190Z,21.46
2022-12-28T22:26:46.805Z,21.44
2022-12-28T22:29:17.537Z,21.44
2022-12-28T22:31:47.992Z,21.42
2022-12-28T22:34:20.615Z,21.41
2022-12-28T22:36:51.000Z,21.39
2022-12-28T22:41:50.681Z,21.36
2022-12-28T22:44:20.499Z,21.35
2022-12-28T22:46:50.714Z,21.33
2022-12-28T22:49:23.044Z,21.32
2022-12-28T22:51:52.854Z,21.31
2022-12-28T22:54:23.407Z,21.29
2022-12-28T22:56:54.289Z,21.29
2022-12-28T22:59:24.645Z,21.27
2022-12-28T23:01:56.491Z,21.26
2022-12-28T23:04:29.319Z,21.25
2022-12-28T23:07:03.658Z,21.23
2022-12-28T23:09:34.530Z,21.22
2022-12-28T23:12:05.189Z,21.21
2022-12-28T23:14:51.943Z,21.19
2022-12-28T23:17:22.271Z,21.17
2022-12-28T23:20:11.614Z,21.17
2022-12-28T23:22:58.651Z,21.14
2022-12-28T23:25:45.906Z,21.14
2022-12-28T23:28:18.570Z,21.12
2022-12-28T23:30:52.057Z,21.11
2022-12-28T23:33:22.443Z,21.08
2022-12-28T23:35:54.718Z,21.06
2022-12-28T23:38:24.781Z,21.04
2022-12-28T23:41:15.135Z,21.03
2022-12-28T23:43:45.009Z,21.02
2022-12-28T23:46:15.438Z,21.02
2022-12-28T23:48:45.472Z,21.00
2022-12-28T23:51:18.330Z,20.98
2022-12-28T23:53:48.844Z,20.96
2022-12-28T23:56:19.130Z,20.97
2022-12-28T23:58:52.515Z,20.96
